Time;durP1;ratioP1;P1;durP2;ratioP2;P2;SDS_P1;SDS_P2;PMS_P1;PMS_P2;Temp;Humidity;BMP_temperature;BMP_pressure;BME280_temperature;BME280_humidity;BME280_pressure;Samples;Min_cycle;Max_cycle;Signal;HPM_P1;HPM_P2
2021/01/16 00:00:58;;;;;;;5.43;4.53;;;;;;;-8.48;67.76;99280.75;1684710;85;23654;-68
2021/01/16 00:03:25;;;;;;;15.00;7.13;;;;;;;-8.39;67.26;99283.34;1685590;83;21056;-70
2021/01/16 00:05:55;;;;;;;15.27;8.00;;;;;;;-8.51;67.13;99284.95;1684869;85;21576;-69
2021/01/16 00:08:24;;;;;;;10.87;6.80;;;;;;;-8.49;67.26;99281.73;1684921;85;21065;-68
2021/01/16 00:10:54;;;;;;;10.77;7.30;;;;;;;-8.45;67.14;99269.59;1684944;85;21205;-68
2021/01/16 00:13:24;;;;;;;14.10;7.87;;;;;;;-8.47;67.00;99276.70;1698639;83;22368;-68
2021/01/16 00:15:52;;;;;;;13.37;9.20;;;;;;;-8.62;66.82;99274.66;1684949;83;21179;-67
2021/01/16 00:18:23;;;;;;;11.30;7.43;;;;;;;-8.80;67.30;99267.20;1684878;85;21172;-70
2021/01/16 00:20:56;;;;;;;10.53;7.17;;;;;;;-8.88;67.61;99273.11;1685689;83;21131;-68
2021/01/16 00:23:24;;;;;;;;;;;;;;;-8.98;67.82;99265.77;1687611;83;21131;-63
2021/01/16 00:25:52;;;;;;;12.67;6.63;;;;;;;-8.92;68.19;99271.75;1701778;83;22101;-69
2021/01/16 00:28:29;;;;;;;9.37;6.40;;;;;;;-8.88;68.07;99277.02;1704465;83;21175;-67
2021/01/16 00:31:00;;;;;;;9.50;6.23;;;;;;;-8.90;67.94;99266.73;1687883;83;21179;-69
2021/01/16 00:33:33;;;;;;;11.33;8.57;;;;;;;-8.94;67.86;99276.26;1712282;83;21105;-67
2021/01/16 00:36:02;;;;;;;10.55;6.47;;;;;;;-9.03;67.98;99283.59;1697354;83;21632;-69
2021/01/16 00:38:30;;;;;;;12.07;7.70;;;;;;;-9.01;68.21;99285.56;1651067;86;21251;-68
2021/01/16 00:40:58;;;;;;;10.63;6.67;;;;;;;-9.00;68.26;99278.09;1703625;83;21097;-68
2021/01/16 00:43:25;;;;;;;8.93;6.07;;;;;;;-8.97;68.23;99268.22;1685058;83;21132;-67
2021/01/16 00:45:52;;;;;;;11.87;7.13;;;;;;;-9.01;68.11;99272.53;1684807;85;22002;-69
2021/01/16 00:48:22;;;;;;;10.60;6.23;;;;;;;-8.96;68.29;99269.87;1684903;85;21120;-68
2021/01/16 00:50:52;;;;;;;10.37;6.07;;;;;;;-8.97;67.90;99275.24;1701719;83;21210;-69
2021/01/16 00:53:23;;;;;;;7.08;4.40;;;;;;;-9.29;67.70;99285.39;1713355;83;21223;-67
2021/01/16 00:56:07;;;;;;;12.37;7.23;;;;;;;-9.47;68.18;99271.86;1846250;76;22766;-69
2021/01/16 00:58:36;;;;;;;12.77;7.00;;;;;;;-9.74;68.56;99283.72;1817030;78;21021;-68
2021/01/16 01:01:14;;;;;;;11.53;6.90;;;;;;;-9.66;69.13;99275.71;1873763;76;22712;-70
2021/01/16 01:03:43;;;;;;;9.33;6.03;;;;;;;-9.63;69.40;99268.45;1821185;77;21560;-69
2021/01/16 01:06:12;;;;;;;13.57;7.23;;;;;;;-9.54;69.46;99274.16;1820948;78;22388;-67
2021/01/16 01:08:39;;;;;;;12.30;7.47;;;;;;;-9.47;69.41;99271.39;1820819;78;21004;-68
2021/01/16 01:11:07;;;;;;;9.20;4.97;;;;;;;-9.49;69.13;99272.46;1818732;77;21667;-68
2021/01/16 01:13:34;;;;;;;10.70;7.00;;;;;;;-9.52;69.07;99276.64;1744229;80;21011;-69
2021/01/16 01:16:02;;;;;;;7.47;5.63;;;;;;;-9.49;68.97;99277.67;1821666;77;21008;-70
2021/01/16 01:18:30;;;;;;;7.23;5.70;;;;;;;-9.46;68.97;99272.22;1829400;77;21140;-67
2021/01/16 01:20:57;;;;;;;11.17;6.77;;;;;;;-9.38;68.84;99269.76;1854295;77;20999;-68
2021/01/16 01:23:24;;;;;;;8.13;6.70;;;;;;;-9.34;68.86;99273.73;1854583;77;20987;-62
2021/01/16 01:25:52;;;;;;;7.87;6.33;;;;;;;-9.25;68.76;99273.43;1830835;77;21571;-69
2021/01/16 01:28:19;;;;;;;11.17;6.77;;;;;;;-9.21;68.70;99274.33;1828919;77;21133;-70
2021/01/16 01:30:49;;;;;;;8.63;6.30;;;;;;;-9.16;68.50;99276.52;1822171;77;21599;-69
2021/01/16 01:33:17;;;;;;;9.43;6.87;;;;;;;-9.18;68.29;99277.13;1820841;78;21894;-70
2021/01/16 01:35:44;;;;;;;7.80;5.67;;;;;;;-9.24;67.99;99270.67;1820907;78;21089;-69
2021/01/16 01:38:17;;;;;;;9.00;5.80;;;;;;;-9.34;67.84;99273.73;1827427;77;21558;-69
2021/01/16 01:40:44;;;;;;;8.77;5.83;;;;;;;-9.41;67.85;99279.15;1851994;77;21110;-69
2021/01/16 01:43:12;;;;;;;8.97;6.10;;;;;;;-9.52;67.81;99270.97;1821230;77;22337;-69
2021/01/16 01:45:40;;;;;;;7.93;6.37;;;;;;;-9.70;67.50;99285.57;1820885;78;21141;-70
2021/01/16 01:48:10;;;;;;;8.27;6.83;;;;;;;-9.78;67.84;99287.98;1832864;77;21539;-68
2021/01/16 01:50:37;;;;;;;8.73;6.00;;;;;;;-9.75;67.99;99287.73;1833182;77;21160;-69
2021/01/16 01:53:05;;;;;;;7.90;6.07;;;;;;;-9.80;67.73;99284.70;1823062;77;21129;-69
2021/01/16 01:55:34;;;;;;;8.33;5.47;;;;;;;-9.90;67.67;99281.23;1820838;78;21427;-69
2021/01/16 01:58:04;;;;;;;10.20;5.70;;;;;;;-9.94;67.76;99288.96;1821556;77;21607;-69
2021/01/16 02:00:31;;;;;;;13.00;5.67;;;;;;;-10.03;67.70;99278.05;1843812;77;21129;-69
2021/01/16 02:03:02;;;;;;;9.10;5.67;;;;;;;-10.10;67.57;99271.23;1863589;77;21109;-77
2021/01/16 02:05:29;;;;;;;8.20;5.67;;;;;;;-10.19;67.70;99275.46;1863737;77;21137;-69
2021/01/16 02:07:58;;;;;;;7.50;5.97;;;;;;;-10.22;67.95;99282.23;1862862;77;21147;-70
2021/01/16 02:10:26;;;;;;;6.60;5.83;;;;;;;-10.23;67.90;99285.77;1845541;77;21134;-69
2021/01/16 02:12:56;;;;;;;6.37;5.77;;;;;;;-10.22;68.18;99282.70;1829238;78;21141;-69
2021/01/16 02:15:49;;;;;;;7.93;5.73;;;;;;;-10.15;68.08;99276.81;1829254;77;21181;-68
2021/01/16 02:18:27;;;;;;;8.40;6.37;;;;;;;-10.15;67.84;99275.98;1853822;77;21576;-69
2021/01/16 02:20:56;;;;;;;6.90;5.70;;;;;;;-10.25;67.97;99277.73;1846404;77;22135;-69
2021/01/16 02:23:32;;;;;;;6.63;4.67;;;;;;;-10.25;67.98;99278.56;1846333;77;21114;-68
2021/01/16 02:26:27;;;;;;;8.30;5.17;;;;;;;-10.22;67.96;99290.03;1846326;77;21560;-69
2021/01/16 02:29:01;;;;;;;9.23;6.40;;;;;;;-10.31;67.80;99294.66;1848129;77;21590;-69
2021/01/16 02:31:38;;;;;;;11.53;6.43;;;;;;;-10.45;67.98;99292.39;1846464;77;21114;-69
2021/01/16 02:34:07;;;;;;;9.37;6.10;;;;;;;-10.45;68.30;99292.39;1847335;77;21873;-68
2021/01/16 02:36:54;;;;;;;8.80;6.27;;;;;;;-10.36;68.37;99296.03;1833787;77;21835;-72
2021/01/16 02:39:48;;;;;;;13.97;5.53;;;;;;;-10.28;68.50;99298.80;1810678;77;21834;-71
2021/01/16 02:42:58;;;;;;;9.23;6.47;;;;;;;-10.21;68.21;99294.72;1843335;77;21829;-69
2021/01/16 02:45:49;;;;;;;9.70;7.50;;;;;;;-10.17;68.37;99293.03;1831512;77;21705;-72
2021/01/16 02:48:23;;;;;;;7.57;5.93;;;;;;;-10.02;68.20;99290.89;1851717;77;23367;-70
2021/01/16 02:50:53;;;;;;;10.10;6.10;;;;;;;-9.94;67.98;99296.77;1852023;77;21746;-70
2021/01/16 02:53:24;;;;;;;9.37;6.33;;;;;;;-9.87;67.77;99301.30;1841227;77;21829;-68
2021/01/16 02:55:51;;;;;;;6.33;5.67;;;;;;;-9.85;67.60;99305.08;1826193;77;21681;-68
2021/01/16 02:58:19;;;;;;;7.90;5.97;;;;;;;-9.89;67.47;99305.00;1829281;78;21838;-67
2021/01/16 03:00:46;;;;;;;8.43;6.03;;;;;;;-9.88;67.53;99302.75;1832878;77;23511;-69
2021/01/16 03:03:14;;;;;;;14.27;6.20;;;;;;;-9.83;67.51;99306.59;1845352;77;21750;-70
2021/01/16 03:05:41;;;;;;;8.67;6.23;;;;;;;-9.77;67.41;99304.77;1850207;77;21113;-69
2021/01/16 03:08:09;;;;;;;6.43;5.70;;;;;;;-9.76;67.24;99299.92;1853656;77;21097;-67
2021/01/16 03:10:38;;;;;;;7.40;5.30;;;;;;;-9.87;67.15;99293.97;1853789;77;21176;-69
2021/01/16 03:13:05;;;;;;;7.63;6.10;;;;;;;-10.09;67.43;99296.28;1840136;77;21768;-68
2021/01/16 03:15:34;;;;;;;8.83;6.20;;;;;;;-10.09;67.43;99296.28;1820764;77;21135;-71
2021/01/16 03:18:02;;;;;;;8.30;6.80;;;;;;;-10.20;67.94;99286.80;1788716;78;21790;-68
2021/01/16 03:20:30;;;;;;;11.90;7.20;;;;;;;-10.20;67.94;99286.80;1753696;78;21040;-69
2021/01/16 03:23:02;;;;;;;9.70;7.23;;;;;;;-10.19;67.90;99293.66;1831273;77;21117;-69
2021/01/16 03:25:31;;;;;;;8.03;6.33;;;;;;;-10.25;67.89;99294.64;1848672;77;22197;-69
2021/01/16 03:28:01;;;;;;;12.97;6.23;;;;;;;-10.44;68.25;99288.84;1853518;77;21145;-68
2021/01/16 03:30:31;;;;;;;10.23;6.00;;;;;;;-10.53;68.29;99288.31;1853742;77;21133;-68
2021/01/16 03:32:59;;;;;;;8.47;6.63;;;;;;;-10.65;68.39;99286.73;1849875;77;21098;-70
2021/01/16 03:35:28;;;;;;;8.00;6.33;;;;;;;-10.75;68.40;99298.35;1849009;77;21157;-69
2021/01/16 03:37:57;;;;;;;11.97;7.10;;;;;;;-10.83;68.65;99303.33;1853804;77;22327;-70
2021/01/16 03:40:24;;;;;;;10.50;6.30;;;;;;;-10.83;68.65;99303.33;1853648;77;21148;-69
2021/01/16 03:42:53;;;;;;;15.13;7.10;;;;;;;-10.89;68.42;99310.34;1850610;77;21789;-68
2021/01/16 03:45:22;;;;;;;12.03;8.47;;;;;;;-11.03;68.27;99304.61;1843370;77;21712;-68
2021/01/16 03:47:51;;;;;;;14.90;7.63;;;;;;;-11.18;68.39;99304.88;1842586;77;21810;-69
2021/01/16 03:50:20;;;;;;;12.63;8.43;;;;;;;-11.20;68.66;99302.05;1842397;77;21708;-69
2021/01/16 03:52:48;;;;;;;8.40;6.77;;;;;;;-11.21;68.58;99306.41;1844902;77;21818;-69
2021/01/16 03:55:15;;;;;;;9.50;6.37;;;;;;;-11.23;68.54;99312.21;1844718;77;22433;-68
2021/01/16 03:57:42;;;;;;;11.30;6.93;;;;;;;-11.35;68.09;99308.45;1820179;78;21743;-68
2021/01/16 04:00:11;;;;;;;8.37;6.37;;;;;;;-11.46;68.16;99325.34;1820863;77;21897;-69
2021/01/16 04:02:39;;;;;;;10.43;7.17;;;;;;;-11.51;68.27;99323.91;1838529;77;22254;-69
2021/01/16 04:05:08;;;;;;;16.63;7.00;;;;;;;-11.57;68.22;99328.30;1852799;77;22634;-69
2021/01/16 04:07:36;;;;;;;11.17;6.77;;;;;;;-11.66;68.16;99326.42;1843227;77;21803;-69
2021/01/16 04:10:06;;;;;;;8.57;7.07;;;;;;;-11.79;68.19;99327.02;1842564;77;22295;-67
2021/01/16 04:12:33;;;;;;;11.77;7.13;;;;;;;-12.02;68.51;99327.50;1846919;77;21832;-69
2021/01/16 04:15:03;;;;;;;10.43;7.20;;;;;;;-12.09;68.63;99332.80;1847921;77;22495;-70
2021/01/16 04:17:31;;;;;;;9.63;6.77;;;;;;;-12.09;68.63;99332.80;1852940;77;21461;-74
2021/01/16 04:19:59;;;;;;;12.13;7.90;;;;;;;-12.20;69.00;99343.61;1820105;78;22241;-69
2021/01/16 04:22:26;;;;;;;10.50;7.00;;;;;;;-12.20;69.00;99343.61;1843554;77;21491;-70
2021/01/16 04:24:54;;;;;;;10.57;5.73;;;;;;;-12.28;68.83;99348.55;1827587;77;23008;-74
2021/01/16 04:27:23;;;;;;;13.80;7.20;;;;;;;-12.37;68.74;99362.98;1835210;77;22076;-69
2021/01/16 04:29:52;;;;;;;11.30;7.20;;;;;;;-12.47;68.75;99354.27;1846901;77;21508;-68
2021/01/16 04:32:20;;;;;;;10.43;6.70;;;;;;;-12.57;68.85;99351.53;1836658;77;21859;-68
2021/01/16 04:34:47;;;;;;;11.27;8.37;;;;;;;-12.71;68.88;99360.78;1818441;78;21425;-68
2021/01/16 04:37:15;;;;;;;11.37;7.73;;;;;;;-12.87;69.10;99358.93;1818405;78;21411;-67
2021/01/16 04:39:42;;;;;;;19.50;8.70;;;;;;;-12.87;69.10;99358.93;1822402;77;22148;-67
2021/01/16 04:42:13;;;;;;;13.93;7.70;;;;;;;-12.92;69.16;99362.31;1835204;77;21955;-68
2021/01/16 04:44:44;;;;;;;13.23;7.43;;;;;;;-12.96;69.21;99363.02;1842291;77;21166;-69
2021/01/16 04:47:17;;;;;;;12.47;6.20;;;;;;;-13.01;69.15;99356.52;1828212;77;21292;-67
2021/01/16 04:49:46;;;;;;;14.30;7.77;;;;;;;-13.05;69.23;99358.96;1820087;78;21337;-68
2021/01/16 04:52:14;;;;;;;10.10;6.67;;;;;;;-13.08;69.37;99369.52;1837378;77;21356;-70
2021/01/16 04:54:41;;;;;;;7.00;5.63;;;;;;;-13.09;69.33;99367.39;1838230;77;21412;-68
2021/01/16 04:57:12;;;;;;;13.73;8.73;;;;;;;-13.12;69.35;99383.64;1836890;77;21298;-69
2021/01/16 04:59:40;;;;;;;14.00;7.30;;;;;;;-13.15;69.36;99385.16;1834549;77;21432;-67
2021/01/16 05:02:09;;;;;;;10.57;6.83;;;;;;;-13.20;69.43;99385.48;1858528;77;21364;-68
2021/01/16 05:04:39;;;;;;;17.87;9.70;;;;;;;-13.20;69.59;99391.95;1859255;77;21439;-69
2021/01/16 05:07:09;;;;;;;11.23;6.80;;;;;;;-13.17;69.63;99405.13;1859667;77;21805;-75
2021/01/16 05:12:53;;;;;;;15.57;7.60;;;;;;;-13.04;69.61;99392.47;1825310;76;22863;-70
2021/01/16 05:15:22;;;;;;;14.65;7.95;;;;;;;-13.00;69.56;99391.81;1787240;79;20991;-70
2021/01/16 05:18:14;;;;;;;15.37;9.47;;;;;;;-12.95;69.54;99397.02;1794995;79;21359;-70
2021/01/16 05:20:43;;;;;;;12.90;8.07;;;;;;;-12.89;69.30;99395.27;1798973;79;21239;-69
2021/01/16 05:23:13;;;;;;;12.07;8.17;;;;;;;-12.90;68.96;99405.25;1791881;77;21241;-69
2021/01/16 05:25:51;;;;;;;19.40;8.97;;;;;;;-12.96;68.83;99402.30;1784890;80;21205;-70
2021/01/16 05:28:24;;;;;;;14.33;7.63;;;;;;;-13.03;68.63;99403.66;1789191;79;21304;-73
2021/01/16 05:30:58;;;;;;;12.35;8.60;;;;;;;-13.09;68.63;99410.08;1816689;79;21334;-69
2021/01/16 05:33:29;;;;;;;11.93;7.23;;;;;;;-13.15;68.35;99419.63;1816938;79;21599;-72
2021/01/16 05:35:59;;;;;;;15.87;8.47;;;;;;;-13.25;68.36;99410.84;1816598;79;21807;-69
2021/01/16 05:38:38;;;;;;;14.40;7.63;;;;;;;-13.33;68.44;99411.86;1813950;79;21766;-70
2021/01/16 05:41:12;;;;;;;15.43;8.77;;;;;;;-13.37;68.49;99410.39;1817273;79;21625;-69
2021/01/16 05:43:42;;;;;;;14.67;9.43;;;;;;;-13.43;68.41;99411.66;1817166;79;22377;-69
2021/01/16 05:46:15;;;;;;;16.07;5.77;;;;;;;-13.50;68.45;99422.05;1791137;79;21403;-69
2021/01/16 05:48:42;;;;;;;;;;;;;;;-13.50;68.60;99415.59;1754843;81;21902;-69
2021/01/16 05:51:10;;;;;;;12.20;7.40;;;;;;;-13.49;68.63;99416.42;1764750;80;20553;-70
2021/01/16 05:53:37;;;;;;;11.07;6.20;;;;;;;-13.45;68.68;99416.56;1784882;80;21364;-72
2021/01/16 05:56:06;;;;;;;17.87;9.83;;;;;;;-13.46;68.53;99413.61;1755228;80;21387;-69
2021/01/16 05:58:35;;;;;;;15.53;9.37;;;;;;;-13.54;68.48;99412.03;1753798;80;21292;-70
2021/01/16 06:01:07;;;;;;;20.00;8.00;;;;;;;-13.57;68.53;99416.13;1753713;81;21387;-70
2021/01/16 06:03:36;;;;;;;;;;;;;;;-13.60;68.51;99427.48;1756367;81;21409;-69
2021/01/16 06:06:11;;;;;;;15.60;8.63;;;;;;;-13.65;68.61;99426.97;1754004;80;20232;-70
2021/01/16 06:08:54;;;;;;;11.43;8.20;;;;;;;-13.69;68.73;99433.28;1754002;80;21367;-70
2021/01/16 06:11:23;;;;;;;19.33;9.70;;;;;;;-13.71;68.72;99424.80;1720594;82;21421;-68
2021/01/16 06:13:55;;;;;;;14.07;7.43;;;;;;;-13.73;68.81;99446.89;1757385;81;21638;-70
2021/01/16 06:16:22;;;;;;;20.32;9.28;;;;;;;-13.71;68.95;99443.72;1759675;80;21375;-71
2021/01/16 06:18:56;;;;;;;20.07;11.10;;;;;;;-13.64;68.97;99450.61;1788554;80;21634;-70
2021/01/16 06:21:29;;;;;;;22.23;8.07;;;;;;;-13.61;68.91;99452.97;1773141;80;22152;-69
2021/01/16 06:23:58;;;;;;;13.43;6.60;;;;;;;-13.58;68.74;99453.25;1787752;80;27360;-70
2021/01/16 06:26:27;;;;;;;17.60;9.53;;;;;;;-13.65;68.76;99464.45;1788047;80;21574;-69
2021/01/16 06:29:00;;;;;;;13.70;7.90;;;;;;;-13.67;68.85;99466.80;1787893;80;21889;-69
2021/01/16 06:31:30;;;;;;;21.30;9.93;;;;;;;-13.69;68.91;99473.81;1788065;80;21959;-70
2021/01/16 06:34:05;;;;;;;9.90;7.20;;;;;;;-13.71;68.95;99472.61;1787761;80;22425;-69
2021/01/16 06:36:37;;;;;;;14.90;9.40;;;;;;;-13.71;68.74;99478.61;1787097;80;21167;-72
2021/01/16 06:39:08;;;;;;;11.30;7.67;;;;;;;-13.73;68.92;99475.32;1756793;81;21431;-70
2021/01/16 06:41:36;;;;;;;14.10;7.13;;;;;;;-13.78;68.88;99481.72;1780396;80;21356;-70
2021/01/16 06:44:15;;;;;;;16.17;8.07;;;;;;;-13.88;68.97;99484.09;1787893;80;21424;-71
2021/01/16 06:46:49;;;;;;;16.47;9.67;;;;;;;-13.90;69.07;99481.23;1788062;80;22127;-70
2021/01/16 06:49:23;;;;;;;14.83;8.30;;;;;;;-13.88;69.11;99480.67;1772758;80;21370;-69
2021/01/16 06:51:57;;;;;;;14.20;7.93;;;;;;;-13.88;68.99;99476.80;1757321;80;21760;-76
2021/01/16 06:54:29;;;;;;;7.90;5.07;;;;;;;-13.91;68.90;99495.09;1763993;80;21492;-69
2021/01/16 06:57:13;;;;;;;18.80;8.75;;;;;;;-13.97;68.82;99495.49;1788148;80;22625;-70
2021/01/16 06:59:42;;;;;;;14.37;8.87;;;;;;;-13.96;69.01;99504.44;1787673;80;21334;-69
2021/01/16 07:02:29;;;;;;;10.33;6.57;;;;;;;-13.93;68.90;99485.31;1787867;80;21922;-70
2021/01/16 07:05:04;;;;;;;20.03;9.03;;;;;;;-13.90;68.89;99499.31;1788049;80;21356;-69
2021/01/16 07:07:41;;;;;;;14.90;8.90;;;;;;;-13.86;68.71;99518.88;1787932;80;21449;-68
2021/01/16 07:10:14;;;;;;;13.43;7.83;;;;;;;-13.80;68.73;99517.16;1787942;80;21348;-69
2021/01/16 07:12:48;;;;;;;19.35;8.60;;;;;;;-13.78;68.46;99526.48;1777507;78;22274;-68
2021/01/16 07:15:17;;;;;;;11.23;8.40;;;;;;;-13.81;68.20;99520.70;1770674;80;21023;-70
2021/01/16 07:17:45;;;;;;;15.60;9.10;;;;;;;-13.81;68.33;99516.83;1746357;82;21329;-69
2021/01/16 07:20:13;;;;;;;12.27;6.97;;;;;;;-13.75;68.47;99526.27;1746468;80;21329;-69
2021/01/16 07:22:43;;;;;;;12.60;6.43;;;;;;;-13.68;67.84;99538.34;1728794;83;21503;-69
2021/01/16 07:25:13;;;;;;;19.70;9.70;;;;;;;-13.76;67.49;99541.41;1716553;83;21844;-69
2021/01/16 07:27:42;;;;;;;12.07;8.13;;;;;;;-13.87;67.35;99526.27;1716565;83;21521;-71
2021/01/16 07:30:15;;;;;;;12.70;9.00;;;;;;;-13.88;67.52;99519.43;1716792;83;21334;-70
2021/01/16 07:32:44;;;;;;;;;;;;;;;-13.86;67.42;99524.84;1725776;82;21265;-69
2021/01/16 07:35:24;;;;;;;16.73;9.47;;;;;;;-13.80;67.44;99530.91;1752759;80;20308;-69
2021/01/16 07:37:54;;;;;;;9.10;6.37;;;;;;;-13.80;67.08;99535.25;1751892;81;21425;-70
2021/01/16 07:40:29;;;;;;;14.05;8.55;;;;;;;-13.87;66.55;99545.64;1751861;81;21842;-69
2021/01/16 07:43:00;;;;;;;15.77;7.63;;;;;;;-14.00;66.35;99543.01;1751575;81;21118;-69
2021/01/16 07:45:33;;;;;;;14.60;9.83;;;;;;;-14.07;66.50;99535.30;1751901;81;21361;-70
2021/01/16 07:48:04;;;;;;;18.17;9.20;;;;;;;-14.08;66.61;99543.14;1705252;84;21425;-69
2021/01/16 07:50:35;;;;;;;12.77;7.67;;;;;;;-14.07;66.57;99552.55;1707293;82;22264;-69
2021/01/16 07:53:07;;;;;;;15.63;8.97;;;;;;;-14.10;66.37;99552.77;1712386;82;21882;-69
2021/01/16 07:55:41;;;;;;;11.28;7.70;;;;;;;-14.13;66.33;99547.77;1734892;82;21420;-69
2021/01/16 07:58:26;;;;;;;12.57;8.33;;;;;;;-14.05;66.67;99553.30;1734613;82;21109;-70
2021/01/16 08:01:25;;;;;;;17.10;8.70;;;;;;;-14.01;66.23;99546.55;1730561;82;21480;-69
2021/01/16 08:04:25;;;;;;;16.07;7.00;;;;;;;-13.90;66.40;99546.66;1734763;82;21651;-68
2021/01/16 08:07:06;;;;;;;13.13;6.87;;;;;;;-13.79;65.81;99555.00;1733850;82;21312;-68
2021/01/16 08:09:53;;;;;;;13.07;7.33;;;;;;;-13.76;65.68;99551.75;1722549;81;21456;-67
2021/01/16 08:12:27;;;;;;;7.63;6.33;;;;;;;-13.79;65.38;99556.30;1692384;82;21472;-66
2021/01/16 08:14:54;;;;;;;6.80;5.20;;;;;;;-13.77;65.35;99562.20;1682601;85;21901;-69
2021/01/16 08:17:29;;;;;;;13.23;6.87;;;;;;;-13.79;64.51;99566.64;1697088;83;21389;-69
2021/01/16 08:20:20;;;;;;;11.33;7.20;;;;;;;-13.84;64.24;99564.35;1697109;84;21399;-68
2021/01/16 08:22:51;;;;;;;15.30;7.60;;;;;;;-13.89;64.30;99561.23;1697132;84;21237;-69
2021/01/16 08:25:30;;;;;;;10.60;6.80;;;;;;;-13.91;64.55;99559.69;1721269;83;21854;-68
2021/01/16 08:28:00;;;;;;;8.17;5.10;;;;;;;-13.87;64.89;99561.98;1726130;83;21798;-69
2021/01/16 08:30:30;;;;;;;20.63;9.17;;;;;;;-13.83;64.60;99563.89;1726033;83;21450;-69
2021/01/16 08:33:12;;;;;;;10.80;6.83;;;;;;;-13.79;64.77;99569.22;1725998;83;21186;-69
2021/01/16 08:35:46;;;;;;;13.60;7.53;;;;;;;-13.80;64.42;99566.27;1726175;83;21486;-70
2021/01/16 08:38:20;;;;;;;11.40;5.33;;;;;;;-13.84;64.41;99572.10;1726255;83;21791;-69
2021/01/16 08:41:03;;;;;;;21.03;9.13;;;;;;;-13.95;63.82;99551.75;1725330;83;21298;-71
2021/01/16 08:43:39;;;;;;;16.70;9.50;;;;;;;-14.02;64.05;99568.13;1726015;83;22221;-68
2021/01/16 08:46:17;;;;;;;11.57;6.87;;;;;;;-14.04;64.33;99548.47;1726053;83;21900;-69
2021/01/16 08:49:06;;;;;;;15.20;8.87;;;;;;;-13.99;64.63;99552.42;1726140;83;21352;-68
2021/01/16 08:51:52;;;;;;;6.30;5.13;;;;;;;-14.00;64.54;99551.25;1726173;83;21331;-68
2021/01/16 08:54:21;;;;;;;9.00;5.30;;;;;;;-14.04;64.11;99571.72;1726385;83;21383;-70
2021/01/16 08:57:03;;;;;;;9.43;6.63;;;;;;;-14.17;63.89;99575.56;1726901;83;22812;-67
2021/01/16 08:59:33;;;;;;;12.25;6.95;;;;;;;-14.21;64.07;99562.02;1726254;83;21463;-67
2021/01/16 09:02:13;;;;;;;16.20;9.53;;;;;;;-14.25;64.06;99568.31;1698233;83;21619;-67
2021/01/16 09:04:44;;;;;;;15.73;9.47;;;;;;;-14.30;64.11;99569.52;1695593;84;21937;-70
2021/01/16 09:07:24;;;;;;;14.03;9.33;;;;;;;-14.34;64.29;99569.35;1695569;84;21374;-68
2021/01/16 09:10:00;;;;;;;15.77;8.77;;;;;;;-14.34;64.29;99568.89;1695560;84;21392;-68
2021/01/16 09:12:38;;;;;;;10.10;6.62;;;;;;;-14.34;64.28;99569.35;1680566;83;21388;-67
2021/01/16 09:15:30;;;;;;;9.60;7.83;;;;;;;-14.33;64.26;99582.61;1666642;86;21574;-69
2021/01/16 09:18:12;;;;;;;20.32;9.00;;;;;;;-14.38;64.17;99562.27;1688678;84;21380;-71
2021/01/16 09:20:43;;;;;;;10.25;6.00;;;;;;;-14.40;64.54;99568.02;1667961;86;21171;-69
2021/01/16 09:23:23;;;;;;;12.75;7.72;;;;;;;-14.40;64.38;99564.14;1668110;86;21598;-68
2021/01/16 09:25:58;;;;;;;10.60;6.47;;;;;;;-14.44;64.36;99560.55;1667930;86;21187;-70
2021/01/16 09:28:55;;;;;;;13.08;8.03;;;;;;;-14.43;64.57;99578.52;1691061;84;22283;-71
2021/01/16 09:31:41;;;;;;;11.45;4.83;;;;;;;-14.42;64.29;99561.27;1668389;84;21176;-67
2021/01/16 09:36:58;;;;;;;8.90;6.10;;;;;;;-14.31;64.40;99562.69;1846290;76;22734;-67
2021/01/16 09:39:33;;;;;;;7.63;5.13;;;;;;;-14.30;64.04;99559.20;1812719;78;21528;-69
2021/01/16 09:42:07;;;;;;;10.37;5.77;;;;;;;-14.26;64.04;99570.52;1817421;79;21256;-66
2021/01/16 09:44:43;;;;;;;13.95;7.35;;;;;;;-14.20;64.12;99570.60;1756966;80;21214;-67
2021/01/16 09:47:31;;;;;;;15.77;8.00;;;;;;;-14.06;64.05;99562.80;1784939;80;20956;-70
2021/01/16 09:50:14;;;;;;;13.73;7.60;;;;;;;-13.94;63.88;99556.00;1756651;80;22264;-69
2021/01/16 09:52:52;;;;;;;10.73;5.77;;;;;;;-13.90;63.32;99567.33;1784997;80;21654;-67
2021/01/16 09:55:32;;;;;;;9.37;5.60;;;;;;;-13.90;62.73;99578.12;1769030;80;21353;-68
2021/01/16 09:58:02;;;;;;;13.33;7.03;;;;;;;-13.99;62.26;99571.80;1752235;81;21122;-68
2021/01/16 10:00:34;;;;;;;14.37;9.30;;;;;;;-14.09;62.53;99572.02;1752441;81;21258;-73
2021/01/16 10:03:10;;;;;;;10.23;6.85;;;;;;;-14.03;62.75;99570.80;1766690;80;21690;-70
2021/01/16 10:05:42;;;;;;;11.13;7.67;;;;;;;-13.98;62.79;99567.00;1784904;80;21112;-70
2021/01/16 10:08:09;;;;;;;11.97;7.65;;;;;;;-13.92;62.82;99567.08;1785062;80;21814;-70
2021/01/16 10:10:48;;;;;;;10.20;5.57;;;;;;;-13.85;62.33;99558.81;1785004;80;21157;-70
2021/01/16 10:13:31;;;;;;;14.27;7.60;;;;;;;-13.87;62.00;99558.56;1785087;80;21567;-70
2021/01/16 10:16:09;;;;;;;8.63;6.40;;;;;;;-13.89;62.24;99562.53;1785001;80;21194;-74
2021/01/16 10:18:40;;;;;;;7.57;5.23;;;;;;;-13.88;62.16;99580.98;1785067;80;21321;-69
2021/01/16 10:21:12;;;;;;;13.70;7.80;;;;;;;-13.86;62.00;99552.47;1785670;80;22167;-70
2021/01/16 10:23:43;;;;;;;11.08;7.05;;;;;;;-13.88;61.91;99565.48;1782090;79;21219;-70
2021/01/16 10:26:14;;;;;;;6.37;5.47;;;;;;;-13.83;61.89;99560.02;1766381;80;20956;-70
2021/01/16 10:29:08;;;;;;;12.97;6.43;;;;;;;-13.81;61.72;99554.30;1782737;80;21594;-69
2021/01/16 10:31:36;;;;;;;14.50;7.83;;;;;;;-13.85;61.57;99560.56;1755959;80;21353;-69
2021/01/16 10:34:07;;;;;;;13.00;6.47;;;;;;;-13.91;61.73;99554.52;1753885;81;21294;-68
2021/01/16 10:36:35;;;;;;;11.50;6.77;;;;;;;-13.95;61.74;99555.16;1705252;82;21873;-70
2021/01/16 10:39:14;;;;;;;8.97;4.43;;;;;;;-13.99;61.64;99566.63;1693572;83;21240;-69
2021/01/16 10:41:44;;;;;;;15.77;7.97;;;;;;;-14.01;61.75;99559.46;1698148;83;21194;-72
2021/01/16 10:44:14;;;;;;;14.43;8.80;;;;;;;-14.03;61.81;99564.34;1705070;83;21858;-72
2021/01/16 10:46:46;;;;;;;23.17;6.87;;;;;;;-14.06;61.83;99546.01;1739917;82;21498;-66
2021/01/16 10:49:25;;;;;;;13.60;7.13;;;;;;;-14.04;61.96;99534.27;1746256;82;21384;-69
2021/01/16 10:51:59;;;;;;;11.77;7.10;;;;;;;-14.03;61.96;99542.38;1732612;82;21639;-66
2021/01/16 10:54:30;;;;;;;10.63;6.30;;;;;;;-14.04;62.03;99540.27;1718772;82;21727;-67
2021/01/16 10:57:03;;;;;;;10.30;6.10;;;;;;;-13.95;62.17;99554.33;1702327;82;21844;-67
2021/01/16 10:59:38;;;;;;;12.43;8.30;;;;;;;-13.91;62.18;99559.23;1753384;81;21654;-68
2021/01/16 11:02:13;;;;;;;5.78;4.65;;;;;;;-13.85;62.20;99563.98;1761406;80;21290;-67
2021/01/16 11:04:44;;;;;;;16.40;7.43;;;;;;;-13.84;62.01;99568.69;1709832;82;21038;-66
2021/01/16 11:07:29;;;;;;;10.48;5.45;;;;;;;-13.83;61.76;99558.27;1716779;83;21497;-79
2021/01/16 11:10:09;;;;;;;20.63;9.93;;;;;;;-13.79;61.88;99548.55;1692076;83;21706;-73
2021/01/16 11:12:39;;;;;;;15.33;8.27;;;;;;;-13.68;62.12;99540.09;1675386;84;21451;-71
2021/01/16 11:15:30;;;;;;;12.17;7.90;;;;;;;-13.50;62.46;99547.45;1704303;83;21284;-72
2021/01/16 11:17:59;;;;;;;9.73;6.67;;;;;;;-13.30;62.47;99547.42;1717796;82;21417;-80
2021/01/16 11:20:30;;;;;;;9.50;7.50;;;;;;;-13.11;62.22;99561.23;1733639;80;21293;-70
2021/01/16 11:23:30;;;;;;;14.73;9.03;;;;;;;-13.01;61.77;99562.23;1730565;82;21229;-71
2021/01/16 11:26:08;;;;;;;13.43;9.08;;;;;;;-12.92;61.58;99548.19;1716104;82;21378;-70
2021/01/16 11:28:56;;;;;;;18.77;7.50;;;;;;;-12.78;61.55;99548.98;1753591;80;21618;-71
2021/01/16 11:31:30;;;;;;;7.63;5.70;;;;;;;-12.63;61.08;99543.58;1767716;80;21860;-72
2021/01/16 11:34:11;;;;;;;9.17;4.37;;;;;;;-12.55;60.23;99539.98;1767246;80;21460;-71
2021/01/16 11:37:04;;;;;;;12.13;7.17;;;;;;;-12.45;59.93;99542.75;1678666;84;21764;-72
2021/01/16 11:39:44;;;;;;;8.13;6.53;;;;;;;-12.51;59.05;99540.58;1722872;83;21406;-70
2021/01/16 11:42:13;;;;;;;8.17;4.73;;;;;;;-12.55;59.14;99561.16;1737768;81;21103;-74
2021/01/16 11:45:01;;;;;;;10.03;7.40;;;;;;;-12.57;58.89;99560.45;1747520;81;21429;-70
2021/01/16 11:47:29;;;;;;;12.33;7.17;;;;;;;-12.60;58.95;99553.71;1705669;82;21407;-72
2021/01/16 11:49:59;;;;;;;11.77;6.73;;;;;;;-12.64;58.81;99548.86;1775767;80;21457;-73
2021/01/16 11:52:27;;;;;;;17.30;7.77;;;;;;;-12.63;59.00;99545.34;1784156;80;21348;-68
2021/01/16 11:54:56;;;;;;;11.47;6.87;;;;;;;-12.65;59.17;99548.03;1725050;81;21409;-69